createdAt,value
2022-08-27T00:02:18.019Z,3.90
2022-08-27T00:04:47.305Z,4.80
2022-08-27T00:07:16.191Z,5.00
2022-08-27T00:09:44.268Z,4.50
2022-08-27T00:12:13.772Z,4.40
2022-08-27T00:14:41.838Z,4.50
2022-08-27T00:17:10.118Z,5.10
2022-08-27T00:19:38.811Z,4.70
2022-08-27T00:22:08.832Z,5.20
2022-08-27T00:24:45.216Z,4.90
2022-08-27T00:27:18.343Z,4.90
2022-08-27T00:29:47.786Z,5.00
2022-08-27T00:32:16.631Z,4.70
2022-08-27T00:34:45.054Z,5.50
2022-08-27T00:37:13.830Z,4.90
2022-08-27T00:39:42.011Z,5.00
2022-08-27T00:42:11.005Z,5.00
2022-08-27T00:44:39.522Z,4.90
2022-08-27T00:47:13.407Z,4.50
2022-08-27T00:49:46.896Z,4.70
2022-08-27T00:52:27.776Z,4.70
2022-08-27T00:55:04.542Z,5.00
2022-08-27T00:57:35.847Z,5.00
2022-08-27T01:00:06.620Z,5.00
2022-08-27T01:02:34.972Z,5.40
2022-08-27T01:05:09.020Z,5.60
2022-08-27T01:07:41.292Z,5.40
2022-08-27T01:10:18.677Z,5.00
2022-08-27T01:12:53.486Z,6.00
2022-08-27T01:15:24.627Z,5.80
2022-08-27T01:17:53.439Z,5.90
2022-08-27T01:20:26.125Z,5.80
2022-08-27T01:23:18.973Z,6.00
2022-08-27T01:25:47.990Z,5.80
2022-08-27T01:28:17.470Z,5.30
2022-08-27T01:30:50.258Z,5.00
2022-08-27T01:33:21.607Z,5.40
2022-08-27T01:35:52.545Z,5.10
2022-08-27T01:38:31.017Z,5.00
2022-08-27T01:41:01.338Z,5.20
2022-08-27T01:43:31.711Z,4.80
2022-08-27T01:46:00.601Z,5.30
2022-08-27T01:48:28.873Z,5.10
2022-08-27T01:50:57.053Z,4.90
2022-08-27T01:53:26.593Z,4.60
2022-08-27T01:55:56.085Z,5.30
2022-08-27T01:58:28.841Z,5.10
2022-08-27T02:01:00.813Z,5.10
2022-08-27T02:03:30.109Z,5.20
2022-08-27T02:05:58.594Z,5.30
2022-08-27T02:08:26.769Z,4.80
2022-08-27T02:10:54.940Z,4.50
2022-08-27T02:13:23.217Z,4.50
2022-08-27T02:15:51.434Z,4.90
2022-08-27T02:18:19.899Z,4.80
2022-08-27T02:20:49.238Z,4.80
2022-08-27T02:23:18.470Z,4.70
2022-08-27T02:25:49.509Z,5.10
2022-08-27T02:28:17.683Z,4.90
2022-08-27T02:30:45.847Z,4.60
2022-08-27T02:33:14.037Z,5.00
2022-08-27T02:35:44.088Z,5.20
2022-08-27T02:38:14.288Z,5.30
2022-08-27T02:40:42.655Z,5.10
2022-08-27T02:43:15.798Z,6.10
2022-08-27T02:45:44.528Z,5.60
2022-08-27T02:48:12.845Z,6.10
2022-08-27T02:50:41.594Z,5.70
2022-08-27T02:53:10.485Z,5.50
2022-08-27T02:55:38.577Z,6.00
2022-08-27T02:58:09.967Z,5.90
2022-08-27T03:00:38.388Z,5.50
2022-08-27T03:03:06.565Z,5.80
2022-08-27T03:05:35.090Z,5.70
2022-08-27T03:08:05.195Z,5.90
2022-08-27T03:10:34.059Z,5.80
2022-08-27T03:13:02.542Z,6.50
2022-08-27T03:15:30.713Z,6.00
2022-08-27T03:18:17.422Z,5.50
2022-08-27T03:20:53.636Z,5.20
2022-08-27T03:23:27.002Z,5.40
2022-08-27T03:25:58.124Z,4.80
2022-08-27T03:28:29.764Z,5.00
2022-08-27T03:31:01.499Z,4.90
2022-08-27T03:33:32.273Z,5.20
2022-08-27T03:36:00.851Z,4.60
2022-08-27T03:38:29.033Z,5.00
2022-08-27T03:40:57.203Z,5.20
2022-08-27T03:43:25.710Z,5.10
2022-08-27T03:46:01.758Z,4.80
2022-08-27T03:48:32.378Z,6.20
2022-08-27T03:51:06.763Z,6.70
2022-08-27T03:53:37.035Z,7.90
2022-08-27T03:56:06.469Z,8.00
2022-08-27T03:58:36.539Z,7.40
2022-08-27T04:01:06.254Z,7.50
2022-08-27T04:03:35.553Z,5.90
2022-08-27T04:06:03.831Z,5.80
2022-08-27T04:08:31.925Z,5.90
2022-08-27T04:11:00.142Z,6.20
2022-08-27T04:13:28.347Z,5.80
2022-08-27T04:15:57.079Z,5.40
2022-08-27T04:18:25.523Z,5.60
2022-08-27T04:20:53.894Z,6.20
2022-08-27T04:23:22.070Z,6.20
2022-08-27T04:25:50.278Z,5.70
2022-08-27T04:28:18.729Z,5.70
2022-08-27T04:30:47.600Z,6.70
2022-08-27T04:33:15.996Z,5.80
2022-08-27T04:35:44.072Z,6.10
2022-08-27T04:38:12.479Z,6.00
2022-08-27T04:40:59.156Z,6.20
2022-08-27T04:43:28.463Z,7.40
2022-08-27T04:45:57.090Z,7.80
2022-08-27T04:48:26.039Z,6.10
2022-08-27T04:50:54.719Z,6.60
2022-08-27T04:53:22.790Z,6.90
2022-08-27T04:55:53.832Z,5.80
2022-08-27T04:58:23.670Z,6.50
2022-08-27T05:00:54.413Z,6.50
2022-08-27T05:03:24.518Z,6.50
2022-08-27T05:05:54.517Z,6.70
2022-08-27T05:08:22.797Z,6.30
2022-08-27T05:10:51.902Z,6.10
2022-08-27T05:13:22.684Z,6.90
2022-08-27T05:15:59.362Z,6.00
2022-08-27T05:18:29.011Z,5.90
2022-08-27T05:20:58.430Z,6.10
2022-08-27T05:23:28.241Z,6.20
2022-08-27T05:25:57.836Z,5.80
2022-08-27T05:28:28.232Z,5.80
2022-08-27T05:31:05.393Z,6.30
2022-08-27T05:33:34.647Z,5.60
2022-08-27T05:36:03.142Z,6.10
2022-08-27T05:38:32.729Z,6.50
2022-08-27T05:41:04.597Z,6.70
2022-08-27T05:43:32.952Z,6.50
2022-08-27T05:46:07.153Z,6.20
2022-08-27T05:48:36.718Z,7.30
2022-08-27T05:51:25.952Z,6.60
2022-08-27T05:54:18.969Z,5.80
2022-08-27T05:56:49.493Z,5.80
2022-08-27T05:59:37.198Z,5.80
2022-08-27T06:02:07.304Z,5.80
2022-08-27T06:04:36.831Z,6.20
2022-08-27T06:07:06.716Z,6.10
2022-08-27T06:09:34.994Z,6.00
2022-08-27T06:12:03.613Z,5.70
2022-08-27T06:14:31.861Z,5.90
2022-08-27T06:17:01.463Z,5.70
2022-08-27T06:19:30.356Z,6.30
2022-08-27T06:22:10.001Z,6.80
2022-08-27T06:24:42.779Z,6.00
2022-08-27T06:27:16.301Z,7.10
2022-08-27T06:29:44.806Z,6.60
2022-08-27T06:32:15.043Z,7.30
2022-08-27T06:34:43.463Z,6.80
2022-08-27T06:37:11.640Z,7.00
2022-08-27T06:39:39.884Z,5.90
2022-08-27T06:42:13.519Z,6.40
2022-08-27T06:44:42.104Z,6.50
2022-08-27T06:47:11.407Z,6.30
2022-08-27T06:49:41.623Z,6.40
2022-08-27T06:52:15.632Z,6.40
2022-08-27T06:54:45.247Z,6.50
2022-08-27T06:57:13.415Z,6.70
2022-08-27T06:59:41.726Z,7.60
2022-08-27T07:02:10.048Z,7.00
2022-08-27T07:04:38.248Z,6.70
2022-08-27T07:07:06.451Z,7.50
2022-08-27T07:09:35.007Z,6.60
2022-08-27T07:12:04.110Z,6.80
2022-08-27T07:14:37.793Z,6.30
2022-08-27T07:17:10.934Z,6.60
2022-08-27T07:19:41.160Z,6.40
2022-08-27T07:22:11.135Z,6.70
2022-08-27T07:24:40.226Z,6.20
2022-08-27T07:27:09.043Z,6.80
2022-08-27T07:29:37.498Z,6.30
2022-08-27T07:32:05.963Z,6.20
2022-08-27T07:34:34.052Z,6.60
2022-08-27T07:37:02.230Z,7.20
2022-08-27T07:39:30.401Z,6.00
2022-08-27T07:42:17.237Z,5.80
2022-08-27T07:44:45.382Z,6.00
2022-08-27T07:47:13.717Z,6.50
2022-08-27T07:49:42.043Z,6.00
2022-08-27T07:52:10.552Z,5.20
2022-08-27T07:54:38.795Z,5.30
2022-08-27T07:57:06.973Z,5.50
2022-08-27T07:59:35.063Z,5.40
2022-08-27T08:02:04.050Z,5.10
2022-08-27T08:04:32.415Z,5.30
2022-08-27T08:07:00.381Z,6.10
2022-08-27T08:09:30.918Z,10.30
2022-08-27T08:11:59.129Z,6.10
2022-08-27T08:14:27.368Z,5.60
2022-08-27T08:17:00.251Z,6.10
2022-08-27T08:19:29.549Z,5.50
2022-08-27T08:22:04.944Z,5.50
2022-08-27T08:24:36.685Z,5.50
2022-08-27T08:27:07.701Z,5.60
2022-08-27T08:29:36.314Z,4.90
2022-08-27T08:32:07.760Z,6.00
2022-08-27T08:34:36.961Z,4.90
2022-08-27T08:37:06.945Z,4.40
2022-08-27T08:39:37.061Z,4.30
2022-08-27T08:42:10.765Z,4.50
2022-08-27T08:44:46.113Z,5.10
2022-08-27T08:47:22.301Z,4.50
2022-08-27T08:50:01.200Z,4.70
2022-08-27T08:52:34.903Z,4.90
2022-08-27T08:55:25.090Z,4.80
2022-08-27T08:58:12.619Z,4.90
2022-08-27T09:00:44.231Z,5.10
2022-08-27T09:03:14.702Z,4.80
2022-08-27T09:05:48.371Z,4.00
2022-08-27T09:08:35.249Z,4.60
2022-08-27T09:11:33.647Z,4.60
2022-08-27T09:14:04.057Z,4.00
2022-08-27T09:16:32.790Z,4.40
2022-08-27T09:19:02.729Z,4.10
2022-08-27T09:21:51.176Z,5.30
2022-08-27T09:24:48.228Z,4.90
2022-08-27T09:27:16.421Z,5.60
2022-08-27T09:29:50.722Z,4.70
2022-08-27T09:32:25.793Z,4.80
2022-08-27T09:34:58.642Z,4.10
2022-08-27T09:37:39.315Z,4.90
2022-08-27T09:40:32.539Z,4.60
2022-08-27T09:43:20.588Z,4.10
2022-08-27T09:45:52.756Z,4.30
2022-08-27T09:48:30.782Z,4.20
2022-08-27T09:51:01.822Z,3.80
2022-08-27T09:53:50.797Z,3.70
2022-08-27T09:56:38.213Z,3.80
2022-08-27T09:59:07.878Z,4.30
2022-08-27T10:02:02.594Z,3.70
2022-08-27T10:04:53.340Z,3.80
2022-08-27T10:07:31.430Z,3.70
2022-08-27T10:10:29.943Z,3.80
2022-08-27T10:13:10.378Z,3.60
2022-08-27T10:15:49.303Z,3.40
2022-08-27T10:18:41.489Z,3.90
2022-08-27T10:21:29.168Z,3.80
2022-08-27T10:24:27.959Z,4.10
2022-08-27T10:27:14.571Z,4.00
2022-08-27T10:29:52.773Z,3.70
2022-08-27T10:33:03.717Z,3.80
2022-08-27T10:35:51.863Z,3.70
2022-08-27T10:38:44.990Z,3.60
2022-08-27T10:41:22.650Z,3.40
2022-08-27T10:44:31.995Z,4.60
2022-08-27T10:47:18.416Z,3.80
2022-08-27T10:50:11.555Z,4.30
2022-08-27T10:52:51.500Z,3.50
2022-08-27T10:55:27.706Z,3.60
2022-08-27T10:58:21.074Z,3.70
2022-08-27T11:01:03.317Z,4.10
2022-08-27T11:03:40.312Z,3.60
2022-08-27T11:06:21.834Z,3.40
2022-08-27T11:08:55.874Z,3.40
2022-08-27T11:14:40.806Z,3.40
2022-08-27T11:17:16.264Z,3.70
2022-08-27T11:22:34.735Z,3.90
2022-08-27T11:25:31.254Z,3.60
2022-08-27T11:28:01.369Z,3.50
2022-08-27T11:30:35.081Z,4.00
2022-08-27T11:33:48.309Z,3.70
2022-08-27T11:36:31.681Z,3.80
2022-08-27T11:39:36.671Z,3.80
2022-08-27T11:42:18.470Z,3.50
2022-08-27T11:44:49.922Z,4.20
2022-08-27T11:47:25.364Z,3.80
2022-08-27T11:52:39.969Z,4.20
2022-08-27T11:55:17.333Z,3.90
2022-08-27T11:57:47.079Z,3.40
2022-08-27T12:00:29.393Z,3.40
2022-08-27T12:03:05.054Z,3.40
2022-08-27T12:05:41.140Z,3.80
2022-08-27T12:08:17.108Z,3.90
2022-08-27T12:10:54.217Z,3.70
2022-08-27T12:13:38.449Z,3.50
2022-08-27T12:16:35.001Z,3.50
2022-08-27T12:19:11.967Z,3.80
2022-08-27T12:21:39.989Z,4.10
2022-08-27T12:24:30.947Z,3.80
2022-08-27T12:27:01.785Z,3.50
2022-08-27T12:29:54.636Z,4.00
2022-08-27T12:32:34.098Z,4.20
2022-08-27T12:35:16.079Z,5.60
2022-08-27T12:37:49.073Z,3.40
2022-08-27T12:40:37.898Z,3.80
2022-08-27T12:43:26.301Z,4.10
2022-08-27T12:46:29.803Z,4.30
2022-08-27T12:49:36.964Z,4.40
2022-08-27T12:51:54.614Z,3.30
2022-08-27T12:54:59.230Z,3.90
2022-08-27T12:57:43.171Z,4.00
2022-08-27T13:00:19.618Z,4.50
2022-08-27T13:03:14.731Z,3.80
2022-08-27T13:05:46.965Z,4.10
2022-08-27T13:08:35.281Z,3.60
2022-08-27T13:11:18.060Z,4.00
2022-08-27T13:13:46.234Z,3.10
2022-08-27T13:16:17.311Z,3.20
2022-08-27T13:18:52.927Z,3.70
2022-08-27T13:21:28.457Z,3.10
2022-08-27T13:24:03.811Z,3.80
2022-08-27T13:26:37.061Z,4.10
2022-08-27T13:29:06.694Z,3.70
2022-08-27T13:31:36.332Z,3.90
2022-08-27T13:34:06.644Z,4.10
2022-08-27T13:36:58.225Z,3.30
2022-08-27T13:39:28.210Z,3.60
2022-08-27T13:42:01.006Z,4.20
2022-08-27T13:44:37.731Z,3.90
2022-08-27T13:47:09.025Z,3.70
2022-08-27T13:49:40.483Z,4.40
2022-08-27T13:52:27.354Z,3.90
2022-08-27T13:55:01.370Z,3.70
2022-08-27T13:57:43.678Z,4.40
2022-08-27T14:00:31.818Z,3.70
2022-08-27T14:03:04.065Z,4.10
2022-08-27T14:05:34.211Z,4.10
2022-08-27T14:08:14.296Z,4.00
2022-08-27T14:10:48.686Z,4.50
2022-08-27T14:13:16.750Z,4.30
2022-08-27T14:15:56.728Z,3.70
2022-08-27T14:18:42.525Z,3.80
2022-08-27T14:21:15.273Z,3.90
2022-08-27T14:23:43.548Z,4.00
2022-08-27T14:26:11.719Z,3.90
2022-08-27T14:28:39.896Z,4.30
2022-08-27T14:31:07.879Z,4.30
2022-08-27T14:33:36.043Z,3.50
2022-08-27T14:36:05.598Z,5.40
2022-08-27T14:38:36.996Z,3.90
2022-08-27T14:41:08.189Z,3.60
2022-08-27T14:43:36.667Z,4.10
2022-08-27T14:46:07.453Z,3.70
2022-08-27T14:48:35.940Z,3.30
2022-08-27T14:51:12.649Z,4.10
2022-08-27T14:53:40.789Z,4.20
2022-08-27T14:56:09.060Z,4.10
2022-08-27T14:58:37.438Z,3.80
2022-08-27T15:01:06.096Z,4.20
2022-08-27T15:03:39.125Z,3.50
2022-08-27T15:06:07.385Z,3.90
2022-08-27T15:08:36.382Z,4.00
2022-08-27T15:11:05.547Z,3.90
2022-08-27T15:13:34.473Z,4.00
2022-08-27T15:16:07.011Z,3.70
2022-08-27T15:18:35.325Z,4.10
2022-08-27T15:21:04.321Z,3.80
2022-08-27T15:23:32.696Z,3.80
2022-08-27T15:26:00.974Z,3.80
2022-08-27T15:28:29.518Z,4.00
2022-08-27T15:30:57.857Z,3.60
2022-08-27T15:33:26.319Z,6.50
2022-08-27T15:35:54.595Z,3.80
2022-08-27T15:38:22.667Z,4.70
2022-08-27T15:40:50.844Z,6.40
2022-08-27T15:43:19.528Z,5.70
2022-08-27T15:45:47.701Z,3.50
2022-08-27T15:48:15.795Z,4.00
2022-08-27T15:50:44.251Z,4.30
2022-08-27T15:53:13.085Z,3.90
2022-08-27T15:55:43.337Z,4.70
2022-08-27T15:58:11.965Z,4.50
2022-08-27T16:00:42.373Z,4.20
2022-08-27T16:03:13.261Z,5.10
2022-08-27T16:05:46.258Z,4.50
2022-08-27T16:08:14.785Z,5.10
2022-08-27T16:10:42.955Z,3.80
2022-08-27T16:13:11.026Z,4.60
2022-08-27T16:15:40.867Z,4.10
2022-08-27T16:18:10.342Z,3.90
2022-08-27T16:20:39.245Z,4.10
2022-08-27T16:23:08.232Z,4.50
2022-08-27T16:25:36.324Z,4.50
2022-08-27T16:28:04.398Z,5.20
2022-08-27T16:30:32.899Z,5.10
2022-08-27T16:33:01.493Z,4.70
2022-08-27T16:35:30.436Z,4.90
2022-08-27T16:37:58.917Z,4.50
2022-08-27T16:40:27.661Z,4.50
2022-08-27T16:42:55.756Z,4.20
2022-08-27T16:45:24.358Z,4.00
2022-08-27T16:48:11.338Z,4.50
2022-08-27T16:50:41.903Z,4.10
2022-08-27T16:53:22.203Z,4.60
2022-08-27T16:55:51.936Z,4.30
2022-08-27T16:58:22.024Z,5.20
2022-08-27T17:00:53.188Z,4.80
2022-08-27T17:03:24.059Z,5.80
2022-08-27T17:05:53.070Z,4.30
2022-08-27T17:08:26.140Z,4.60
2022-08-27T17:10:56.792Z,4.90
2022-08-27T17:13:28.651Z,4.90
2022-08-27T17:15:57.473Z,5.10
2022-08-27T17:18:27.834Z,4.20
2022-08-27T17:20:59.218Z,4.60
2022-08-27T17:23:39.378Z,8.60
2022-08-27T17:26:09.994Z,4.70
2022-08-27T17:28:40.775Z,4.90
2022-08-27T17:31:11.621Z,4.40
2022-08-27T17:33:43.427Z,4.30
2022-08-27T17:36:12.933Z,5.10
2022-08-27T17:38:42.337Z,4.80
2022-08-27T17:41:16.322Z,4.70
2022-08-27T17:43:44.524Z,4.50
2022-08-27T17:46:13.859Z,4.70
2022-08-27T17:48:42.816Z,5.60
2022-08-27T17:51:13.562Z,5.40
2022-08-27T17:53:47.355Z,4.70
2022-08-27T17:56:18.908Z,5.00
2022-08-27T17:58:48.464Z,5.30
2022-08-27T18:01:30.485Z,5.20
2022-08-27T18:03:59.771Z,5.20
2022-08-27T18:06:28.577Z,5.30
2022-08-27T18:08:56.989Z,4.90
2022-08-27T18:11:25.500Z,4.60
2022-08-27T18:13:58.288Z,5.30
2022-08-27T18:16:27.878Z,5.90
2022-08-27T18:18:56.436Z,6.20
2022-08-27T18:21:25.535Z,5.40
2022-08-27T18:23:54.950Z,5.40
2022-08-27T18:26:26.017Z,4.90
2022-08-27T18:28:56.098Z,5.80
2022-08-27T18:31:29.939Z,6.00
2022-08-27T18:34:00.092Z,6.20
2022-08-27T18:36:29.737Z,6.90
2022-08-27T18:38:58.339Z,7.20
2022-08-27T18:41:28.728Z,7.60
2022-08-27T18:43:57.727Z,7.30
2022-08-27T18:46:26.516Z,7.70
2022-08-27T18:48:54.755Z,8.90
2022-08-27T18:51:22.997Z,7.60
2022-08-27T18:53:50.972Z,7.90
2022-08-27T18:56:19.655Z,8.00
2022-08-27T18:58:49.138Z,9.10
2022-08-27T19:01:26.016Z,8.50
2022-08-27T19:03:57.186Z,9.00
2022-08-27T19:06:25.885Z,8.90
2022-08-27T19:08:53.938Z,9.00
2022-08-27T19:11:22.229Z,8.60
2022-08-27T19:13:51.288Z,7.20
2022-08-27T19:16:24.226Z,6.80
2022-08-27T19:18:52.551Z,7.00
2022-08-27T19:21:20.730Z,6.80
2022-08-27T19:23:51.259Z,8.40
2022-08-27T19:26:24.145Z,8.20
2022-08-27T19:28:52.831Z,9.00
2022-08-27T19:31:21.266Z,8.40
2022-08-27T19:33:50.100Z,8.60
2022-08-27T19:36:21.137Z,9.10
2022-08-27T19:38:51.720Z,10.10
2022-08-27T19:41:21.451Z,10.70
2022-08-27T19:43:52.050Z,10.60
2022-08-27T19:46:22.352Z,10.40
2022-08-27T19:48:50.512Z,10.40
2022-08-27T19:51:19.505Z,10.10
2022-08-27T19:53:47.883Z,11.00
2022-08-27T19:56:16.264Z,10.50
2022-08-27T19:58:45.558Z,11.20
2022-08-27T20:01:13.923Z,9.80
2022-08-27T20:03:42.044Z,10.60
2022-08-27T20:06:10.493Z,9.80
2022-08-27T20:08:38.776Z,10.10
2022-08-27T20:11:07.045Z,10.10
2022-08-27T20:13:35.245Z,9.50
2022-08-27T20:16:06.669Z,9.60
2022-08-27T20:18:41.461Z,9.60
2022-08-27T20:21:09.673Z,9.80
2022-08-27T20:23:37.853Z,9.90
2022-08-27T20:26:06.438Z,10.60
2022-08-27T20:28:39.208Z,9.00
2022-08-27T20:31:08.546Z,8.70
2022-08-27T20:33:36.695Z,8.80
2022-08-27T20:36:06.813Z,9.20
2022-08-27T20:38:35.567Z,8.20
2022-08-27T20:41:05.060Z,8.50
2022-08-27T20:43:34.207Z,9.30
2022-08-27T20:46:03.168Z,9.40
2022-08-27T20:48:31.470Z,9.00
2022-08-27T20:50:59.542Z,8.40
2022-08-27T20:53:27.817Z,8.50
2022-08-27T20:55:56.950Z,8.40
2022-08-27T20:58:44.338Z,7.80
2022-08-27T21:01:12.814Z,7.80
2022-08-27T21:03:40.993Z,7.90
2022-08-27T21:06:09.479Z,7.70
2022-08-27T21:08:39.397Z,7.60
2022-08-27T21:11:13.711Z,8.10
2022-08-27T21:13:55.373Z,7.70
2022-08-27T21:16:25.912Z,7.90
2022-08-27T21:18:54.136Z,8.50
2022-08-27T21:21:22.792Z,8.40
2022-08-27T21:23:51.109Z,8.10
2022-08-27T21:26:20.478Z,7.10
2022-08-27T21:28:48.529Z,7.80
2022-08-27T21:31:25.323Z,8.40
2022-08-27T21:33:53.701Z,7.40
2022-08-27T21:36:22.694Z,7.10
2022-08-27T21:38:50.861Z,7.40
2022-08-27T21:41:20.415Z,7.40
2022-08-27T21:43:48.644Z,7.20
2022-08-27T21:46:17.870Z,7.00
2022-08-27T21:48:47.448Z,7.70
2022-08-27T21:51:27.201Z,7.50
2022-08-27T21:53:55.374Z,7.70
2022-08-27T21:56:24.055Z,7.60
2022-08-27T21:58:52.434Z,7.80
2022-08-27T22:01:20.639Z,7.30
2022-08-27T22:03:51.887Z,7.80
2022-08-27T22:06:20.234Z,8.40
2022-08-27T22:08:48.945Z,7.60
2022-08-27T22:11:22.013Z,7.90
2022-08-27T22:13:53.768Z,7.30
2022-08-27T22:16:21.977Z,7.60
2022-08-27T22:18:54.312Z,8.00
2022-08-27T22:21:24.336Z,8.70
2022-08-27T22:23:52.920Z,7.70
2022-08-27T22:26:22.038Z,7.60
2022-08-27T22:28:50.401Z,7.50
2022-08-27T22:31:19.308Z,7.40
2022-08-27T22:33:48.068Z,8.50
2022-08-27T22:36:16.245Z,7.30
2022-08-27T22:38:44.416Z,8.30
2022-08-27T22:41:14.027Z,7.50
2022-08-27T22:43:45.401Z,7.60
2022-08-27T22:46:13.605Z,7.40
2022-08-27T22:48:41.826Z,7.40
2022-08-27T22:51:12.673Z,8.00
2022-08-27T22:53:41.048Z,8.00
2022-08-27T22:56:09.318Z,8.20
2022-08-27T22:58:37.327Z,8.20
2022-08-27T23:01:05.834Z,8.00
2022-08-27T23:03:33.857Z,8.00
2022-08-27T23:06:03.036Z,7.90
2022-08-27T23:08:31.957Z,7.40
2022-08-27T23:11:00.021Z,7.70
2022-08-27T23:13:29.813Z,7.50
2022-08-27T23:16:03.176Z,7.50
2022-08-27T23:18:31.487Z,6.70
2022-08-27T23:20:59.661Z,7.70
2022-08-27T23:23:30.763Z,6.30
2022-08-27T23:26:17.967Z,6.10
2022-08-27T23:28:46.083Z,7.20
2022-08-27T23:31:14.993Z,7.10
2022-08-27T23:33:43.424Z,6.70
2022-08-27T23:36:12.258Z,7.10
2022-08-27T23:38:40.434Z,7.30
2022-08-27T23:41:08.608Z,7.40
2022-08-27T23:43:36.786Z,7.10
2022-08-27T23:46:05.039Z,7.40
2022-08-27T23:48:33.646Z,7.90
2022-08-27T23:51:02.025Z,7.90
2022-08-27T23:53:30.115Z,7.90
2022-08-27T23:55:58.165Z,7.30
2022-08-27T23:58:27.050Z,7.60
